sensor_id;sensor_type;location;lat;lon;timestamp;pressure;altitude;pressure_sealevel;temperature;humidity
77077;BME280;66003;52.286;104.306;2023-11-22T00:01:05;98858.31;;;-16.29;35.50
77077;BME280;66003;52.286;104.306;2023-11-22T00:03:32;98859.06;;;-16.27;35.37
77077;BME280;66003;52.286;104.306;2023-11-22T00:05:58;98871.72;;;-16.37;35.26
77077;BME280;66003;52.286;104.306;2023-11-22T00:08:25;98860.88;;;-16.43;35.38
77077;BME280;66003;52.286;104.306;2023-11-22T00:10:51;98865.88;;;-16.40;35.20
77077;BME280;66003;52.286;104.306;2023-11-22T00:13:17;98867.03;;;-16.44;34.95
77077;BME280;66003;52.286;104.306;2023-11-22T00:15:43;98864.13;;;-16.40;34.94
77077;BME280;66003;52.286;104.306;2023-11-22T00:18:09;98876.88;;;-16.51;35.11
77077;BME280;66003;52.286;104.306;2023-11-22T00:20:35;98873.56;;;-16.39;35.51
77077;BME280;66003;52.286;104.306;2023-11-22T00:23:02;98882.44;;;-16.43;35.42
77077;BME280;66003;52.286;104.306;2023-11-22T00:25:31;98882.06;;;-16.37;35.24
77077;BME280;66003;52.286;104.306;2023-11-22T00:27:59;98885.66;;;-16.39;35.86
77077;BME280;66003;52.286;104.306;2023-11-22T00:30:25;98888.25;;;-16.39;35.97
77077;BME280;66003;52.286;104.306;2023-11-22T00:32:53;98889.09;;;-16.25;35.54
77077;BME280;66003;52.286;104.306;2023-11-22T00:35:19;98898.38;;;-16.21;35.21
77077;BME280;66003;52.286;104.306;2023-11-22T00:37:45;98903.72;;;-16.09;35.02
77077;BME280;66003;52.286;104.306;2023-11-22T00:40:12;98893.81;;;-16.17;35.10
77077;BME280;66003;52.286;104.306;2023-11-22T00:42:40;98892.63;;;-16.12;35.07
77077;BME280;66003;52.286;104.306;2023-11-22T00:45:10;98891.41;;;-16.06;35.29
77077;BME280;66003;52.286;104.306;2023-11-22T00:47:37;98888.97;;;-15.95;35.26
77077;BME280;66003;52.286;104.306;2023-11-22T00:50:05;98907.84;;;-15.93;35.43
77077;BME280;66003;52.286;104.306;2023-11-22T00:52:32;98899.91;;;-15.90;35.01
77077;BME280;66003;52.286;104.306;2023-11-22T00:54:58;98913.03;;;-15.79;34.66
77077;BME280;66003;52.286;104.306;2023-11-22T00:57:25;98906.44;;;-15.84;34.58
77077;BME280;66003;52.286;104.306;2023-11-22T00:59:53;98900.25;;;-15.82;34.61
77077;BME280;66003;52.286;104.306;2023-11-22T01:02:20;98902.63;;;-15.50;34.88
77077;BME280;66003;52.286;104.306;2023-11-22T01:04:47;98900.22;;;-15.14;34.94
77077;BME280;66003;52.286;104.306;2023-11-22T01:07:13;98897.78;;;-14.90;33.90
77077;BME280;66003;52.286;104.306;2023-11-22T01:09:39;98902.00;;;-14.49;32.89
77077;BME280;66003;52.286;104.306;2023-11-22T01:12:06;98895.16;;;-14.12;32.69
77077;BME280;66003;52.286;104.306;2023-11-22T01:14:35;98884.59;;;-13.73;31.99
77077;BME280;66003;52.286;104.306;2023-11-22T01:17:01;98873.31;;;-13.37;31.61
77077;BME280;66003;52.286;104.306;2023-11-22T01:19:28;98882.91;;;-13.13;31.76
77077;BME280;66003;52.286;104.306;2023-11-22T01:21:54;98877.81;;;-12.91;31.15
77077;BME280;66003;52.286;104.306;2023-11-22T01:24:20;98877.72;;;-12.67;30.74
77077;BME280;66003;52.286;104.306;2023-11-22T01:26:46;98880.63;;;-12.37;30.02
77077;BME280;66003;52.286;104.306;2023-11-22T01:29:13;98881.25;;;-12.00;29.88
77077;BME280;66003;52.286;104.306;2023-11-22T01:31:39;98891.31;;;-11.84;29.67
77077;BME280;66003;52.286;104.306;2023-11-22T01:34:08;98893.19;;;-11.53;29.22
77077;BME280;66003;52.286;104.306;2023-11-22T01:36:34;98890.81;;;-11.13;28.79
77077;BME280;66003;52.286;104.306;2023-11-22T01:39:00;98893.16;;;-10.67;28.72
77077;BME280;66003;52.286;104.306;2023-11-22T01:41:28;98894.50;;;-10.31;27.66
77077;BME280;66003;52.286;104.306;2023-11-22T01:43:56;98899.03;;;-9.72;28.35
77077;BME280;66003;52.286;104.306;2023-11-22T01:46:23;98892.81;;;-9.31;26.49
77077;BME280;66003;52.286;104.306;2023-11-22T01:48:52;98901.00;;;-8.57;27.49
77077;BME280;66003;52.286;104.306;2023-11-22T01:51:23;98907.75;;;-7.88;28.27
77077;BME280;66003;52.286;104.306;2023-11-22T01:53:53;98905.16;;;-7.33;24.95
77077;BME280;66003;52.286;104.306;2023-11-22T01:56:23;98909.50;;;-6.97;23.55
77077;BME280;66003;52.286;104.306;2023-11-22T01:58:50;98916.88;;;-6.47;24.01
77077;BME280;66003;52.286;104.306;2023-11-22T02:01:18;98931.16;;;-6.50;23.15
77077;BME280;66003;52.286;104.306;2023-11-22T02:03:45;98930.88;;;-7.10;23.31
77077;BME280;66003;52.286;104.306;2023-11-22T02:06:15;98943.81;;;-7.53;23.91
77077;BME280;66003;52.286;104.306;2023-11-22T02:08:45;98933.22;;;-7.34;24.55
77077;BME280;66003;52.286;104.306;2023-11-22T02:11:11;98932.44;;;-6.54;23.90
77077;BME280;66003;52.286;104.306;2023-11-22T02:13:37;98927.28;;;-5.68;22.55
77077;BME280;66003;52.286;104.306;2023-11-22T02:16:04;98919.16;;;-4.99;21.98
77077;BME280;66003;52.286;104.306;2023-11-22T02:18:31;98922.84;;;-4.75;22.24
77077;BME280;66003;52.286;104.306;2023-11-22T02:20:57;98910.84;;;-4.54;21.72
77077;BME280;66003;52.286;104.306;2023-11-22T02:23:24;98906.56;;;-4.30;22.35
77077;BME280;66003;52.286;104.306;2023-11-22T02:25:51;98900.59;;;-4.16;22.37
77077;BME280;66003;52.286;104.306;2023-11-22T02:28:20;98901.91;;;-4.77;20.70
77077;BME280;66003;52.286;104.306;2023-11-22T02:30:46;98900.22;;;-5.78;22.09
77077;BME280;66003;52.286;104.306;2023-11-22T02:33:12;98900.72;;;-6.88;23.02
77077;BME280;66003;52.286;104.306;2023-11-22T02:35:39;98893.72;;;-7.15;23.30
77077;BME280;66003;52.286;104.306;2023-11-22T02:38:07;98892.94;;;-7.80;22.77
77077;BME280;66003;52.286;104.306;2023-11-22T02:40:33;98905.13;;;-8.54;24.43
77077;BME280;66003;52.286;104.306;2023-11-22T02:43:00;98898.88;;;-9.70;24.31
77077;BME280;66003;52.286;104.306;2023-11-22T02:45:31;98906.69;;;-10.52;25.42
77077;BME280;66003;52.286;104.306;2023-11-22T02:47:57;98915.34;;;-10.93;26.34
77077;BME280;66003;52.286;104.306;2023-11-22T02:50:25;98912.78;;;-11.15;27.00
77077;BME280;66003;52.286;104.306;2023-11-22T02:52:51;98913.19;;;-11.31;26.75
77077;BME280;66003;52.286;104.306;2023-11-22T02:55:17;98913.91;;;-11.40;27.05
77077;BME280;66003;52.286;104.306;2023-11-22T02:57:44;98906.00;;;-11.61;27.98
77077;BME280;66003;52.286;104.306;2023-11-22T03:00:11;98917.75;;;-11.78;27.74
77077;BME280;66003;52.286;104.306;2023-11-22T03:02:42;98919.28;;;-11.86;27.76
77077;BME280;66003;52.286;104.306;2023-11-22T03:05:09;98913.59;;;-12.02;28.04
77077;BME280;66003;52.286;104.306;2023-11-22T03:07:38;98911.81;;;-12.13;28.34
77077;BME280;66003;52.286;104.306;2023-11-22T03:10:05;98914.16;;;-12.21;28.65
77077;BME280;66003;52.286;104.306;2023-11-22T03:12:33;98908.94;;;-12.32;28.53
77077;BME280;66003;52.286;104.306;2023-11-22T03:15:00;98901.81;;;-12.30;28.64
77077;BME280;66003;52.286;104.306;2023-11-22T03:17:28;98905.75;;;-12.25;28.62
77077;BME280;66003;52.286;104.306;2023-11-22T03:19:57;98894.50;;;-12.25;28.52
77077;BME280;66003;52.286;104.306;2023-11-22T03:22:25;98883.56;;;-12.30;28.66
77077;BME280;66003;52.286;104.306;2023-11-22T03:24:51;98883.94;;;-12.46;28.61
77077;BME280;66003;52.286;104.306;2023-11-22T03:27:18;98879.88;;;-12.61;28.97
77077;BME280;66003;52.286;104.306;2023-11-22T03:29:44;98879.63;;;-12.58;29.29
77077;BME280;66003;52.286;104.306;2023-11-22T03:32:12;98876.16;;;-12.92;29.18
77077;BME280;66003;52.286;104.306;2023-11-22T03:34:38;98879.69;;;-12.82;29.49
77077;BME280;66003;52.286;104.306;2023-11-22T03:37:04;98886.66;;;-12.83;29.62
77077;BME280;66003;52.286;104.306;2023-11-22T03:39:30;98869.75;;;-12.77;29.43
77077;BME280;66003;52.286;104.306;2023-11-22T03:41:56;98873.06;;;-12.75;29.47
77077;BME280;66003;52.286;104.306;2023-11-22T03:44:23;98865.44;;;-13.00;29.20
77077;BME280;66003;52.286;104.306;2023-11-22T03:46:50;98868.22;;;-13.26;29.82
77077;BME280;66003;52.286;104.306;2023-11-22T03:49:17;98880.03;;;-13.45;29.95
77077;BME280;66003;52.286;104.306;2023-11-22T03:51:43;98872.25;;;-13.58;30.40
77077;BME280;66003;52.286;104.306;2023-11-22T03:54:09;98865.34;;;-13.70;30.32
77077;BME280;66003;52.286;104.306;2023-11-22T03:56:38;98853.47;;;-13.62;30.64
77077;BME280;66003;52.286;104.306;2023-11-22T03:59:04;98861.88;;;-13.34;30.34
77077;BME280;66003;52.286;104.306;2023-11-22T04:01:30;98844.94;;;-13.16;30.06
77077;BME280;66003;52.286;104.306;2023-11-22T04:03:56;98849.66;;;-13.21;29.97
77077;BME280;66003;52.286;104.306;2023-11-22T04:06:23;98846.63;;;-13.39;30.25
77077;BME280;66003;52.286;104.306;2023-11-22T04:08:49;98840.53;;;-13.50;30.31
77077;BME280;66003;52.286;104.306;2023-11-22T04:11:16;98848.50;;;-13.41;30.38
77077;BME280;66003;52.286;104.306;2023-11-22T04:13:44;98844.34;;;-13.43;29.81
77077;BME280;66003;52.286;104.306;2023-11-22T04:16:10;98844.28;;;-13.31;30.33
77077;BME280;66003;52.286;104.306;2023-11-22T04:18:41;98831.34;;;-13.08;30.46
77077;BME280;66003;52.286;104.306;2023-11-22T04:21:08;98841.59;;;-12.94;30.46
77077;BME280;66003;52.286;104.306;2023-11-22T04:23:35;98838.50;;;-12.88;30.01
77077;BME280;66003;52.286;104.306;2023-11-22T04:26:03;98828.94;;;-12.76;30.29
77077;BME280;66003;52.286;104.306;2023-11-22T04:28:29;98832.88;;;-12.60;29.84
77077;BME280;66003;52.286;104.306;2023-11-22T04:30:56;98832.84;;;-12.82;29.64
77077;BME280;66003;52.286;104.306;2023-11-22T04:33:24;98821.13;;;-12.65;30.31
77077;BME280;66003;52.286;104.306;2023-11-22T04:35:51;98829.28;;;-12.81;29.64
77077;BME280;66003;52.286;104.306;2023-11-22T04:38:17;98820.28;;;-12.88;29.92
77077;BME280;66003;52.286;104.306;2023-11-22T04:40:44;98825.75;;;-12.91;29.65
77077;BME280;66003;52.286;104.306;2023-11-22T04:43:11;98831.13;;;-13.05;29.78
77077;BME280;66003;52.286;104.306;2023-11-22T04:45:37;98828.75;;;-13.08;29.89
77077;BME280;66003;52.286;104.306;2023-11-22T04:48:05;98828.25;;;-13.13;30.03
77077;BME280;66003;52.286;104.306;2023-11-22T04:50:35;98823.69;;;-12.88;30.17
77077;BME280;66003;52.286;104.306;2023-11-22T04:53:01;98826.69;;;-12.81;29.63
77077;BME280;66003;52.286;104.306;2023-11-22T04:55:28;98827.53;;;-12.69;29.57
77077;BME280;66003;52.286;104.306;2023-11-22T04:57:55;98815.91;;;-12.65;29.32
77077;BME280;66003;52.286;104.306;2023-11-22T05:00:22;98829.88;;;-12.66;29.19
77077;BME280;66003;52.286;104.306;2023-11-22T05:02:51;98825.28;;;-12.63;28.78
77077;BME280;66003;52.286;104.306;2023-11-22T05:05:17;98827.16;;;-12.65;28.91
77077;BME280;66003;52.286;104.306;2023-11-22T05:07:43;98832.78;;;-12.47;29.25
77077;BME280;66003;52.286;104.306;2023-11-22T05:10:19;98833.22;;;-12.64;29.37
77077;BME280;66003;52.286;104.306;2023-11-22T05:12:45;98818.28;;;-12.73;29.45
77077;BME280;66003;52.286;104.306;2023-11-22T05:15:11;98818.66;;;-12.67;29.42
77077;BME280;66003;52.286;104.306;2023-11-22T05:17:38;98811.00;;;-12.46;29.29
77077;BME280;66003;52.286;104.306;2023-11-22T05:20:05;98808.00;;;-12.41;29.23
77077;BME280;66003;52.286;104.306;2023-11-22T05:22:34;98805.66;;;-12.33;29.45
77077;BME280;66003;52.286;104.306;2023-11-22T05:25:01;98815.84;;;-12.08;29.37
77077;BME280;66003;52.286;104.306;2023-11-22T05:27:27;98813.25;;;-12.19;28.54
77077;BME280;66003;52.286;104.306;2023-11-22T05:29:54;98813.47;;;-12.22;28.75
77077;BME280;66003;52.286;104.306;2023-11-22T05:32:20;98810.28;;;-12.37;28.59
77077;BME280;66003;52.286;104.306;2023-11-22T05:34:47;98804.47;;;-12.40;28.09
77077;BME280;66003;52.286;104.306;2023-11-22T05:37:14;98801.97;;;-12.53;28.39
77077;BME280;66003;52.286;104.306;2023-11-22T05:39:40;98805.19;;;-12.50;28.75
77077;BME280;66003;52.286;104.306;2023-11-22T05:42:06;98800.56;;;-12.68;28.55
77077;BME280;66003;52.286;104.306;2023-11-22T05:44:32;98797.97;;;-12.57;28.95
77077;BME280;66003;52.286;104.306;2023-11-22T05:46:59;98801.03;;;-12.52;28.96
77077;BME280;66003;52.286;104.306;2023-11-22T05:49:25;98795.00;;;-12.53;28.75
77077;BME280;66003;52.286;104.306;2023-11-22T05:51:51;98792.66;;;-12.44;28.59
77077;BME280;66003;52.286;104.306;2023-11-22T05:54:31;98784.81;;;-12.67;28.62
77077;BME280;66003;52.286;104.306;2023-11-22T05:56:57;98792.63;;;-12.67;28.85
77077;BME280;66003;52.286;104.306;2023-11-22T05:59:25;98787.75;;;-12.71;28.88
77077;BME280;66003;52.286;104.306;2023-11-22T06:01:52;98785.88;;;-12.58;28.74
77077;BME280;66003;52.286;104.306;2023-11-22T06:04:18;98790.25;;;-12.48;28.52
77077;BME280;66003;52.286;104.306;2023-11-22T06:06:44;98774.28;;;-12.32;29.14
77077;BME280;66003;52.286;104.306;2023-11-22T06:09:11;98783.63;;;-12.29;28.50
77077;BME280;66003;52.286;104.306;2023-11-22T06:11:40;98777.97;;;-12.34;28.76
77077;BME280;66003;52.286;104.306;2023-11-22T06:14:06;98771.81;;;-12.33;28.58
77077;BME280;66003;52.286;104.306;2023-11-22T06:16:32;98771.81;;;-12.44;28.41
77077;BME280;66003;52.286;104.306;2023-11-22T06:18:58;98770.25;;;-12.47;28.61
77077;BME280;66003;52.286;104.306;2023-11-22T06:21:25;98773.47;;;-12.43;28.72
77077;BME280;66003;52.286;104.306;2023-11-22T06:23:53;98776.28;;;-12.58;28.97
77077;BME280;66003;52.286;104.306;2023-11-22T06:26:21;98764.44;;;-12.39;28.89
77077;BME280;66003;52.286;104.306;2023-11-22T06:28:48;98762.06;;;-12.42;28.91
77077;BME280;66003;52.286;104.306;2023-11-22T06:31:15;98766.34;;;-12.41;28.51
77077;BME280;66003;52.286;104.306;2023-11-22T06:33:41;98776.06;;;-12.43;28.74
77077;BME280;66003;52.286;104.306;2023-11-22T06:36:07;98774.97;;;-12.30;29.15
77077;BME280;66003;52.286;104.306;2023-11-22T06:38:37;98772.50;;;-12.09;29.38
77077;BME280;66003;52.286;104.306;2023-11-22T06:41:03;98766.69;;;-12.13;29.21
77077;BME280;66003;52.286;104.306;2023-11-22T06:43:29;98763.03;;;-12.55;28.49
77077;BME280;66003;52.286;104.306;2023-11-22T06:45:55;98766.34;;;-12.41;28.93
77077;BME280;66003;52.286;104.306;2023-11-22T06:48:21;98762.91;;;-12.53;29.00
77077;BME280;66003;52.286;104.306;2023-11-22T06:50:48;98756.50;;;-12.49;29.05
77077;BME280;66003;52.286;104.306;2023-11-22T06:53:14;98750.94;;;-12.78;29.03
77077;BME280;66003;52.286;104.306;2023-11-22T06:55:41;98754.84;;;-12.84;28.95
77077;BME280;66003;52.286;104.306;2023-11-22T06:58:08;98747.88;;;-12.83;28.86
77077;BME280;66003;52.286;104.306;2023-11-22T07:00:34;98747.25;;;-12.87;29.56
77077;BME280;66003;52.286;104.306;2023-11-22T07:03:00;98747.75;;;-12.82;29.47
77077;BME280;66003;52.286;104.306;2023-11-22T07:05:27;98738.41;;;-12.84;29.42
77077;BME280;66003;52.286;104.306;2023-11-22T07:07:56;98743.38;;;-12.70;29.40
77077;BME280;66003;52.286;104.306;2023-11-22T07:10:22;98741.81;;;-12.84;29.21
77077;BME280;66003;52.286;104.306;2023-11-22T07:12:49;98737.47;;;-12.61;29.57
77077;BME280;66003;52.286;104.306;2023-11-22T07:15:16;98743.00;;;-12.54;29.45
77077;BME280;66003;52.286;104.306;2023-11-22T07:17:42;98756.75;;;-12.63;29.41
77077;BME280;66003;52.286;104.306;2023-11-22T07:20:09;98740.06;;;-12.83;29.41
77077;BME280;66003;52.286;104.306;2023-11-22T07:22:42;98744.91;;;-12.90;30.01
77077;BME280;66003;52.286;104.306;2023-11-22T07:25:09;98740.41;;;-12.88;30.00
77077;BME280;66003;52.286;104.306;2023-11-22T07:27:45;98737.56;;;-12.85;29.96
77077;BME280;66003;52.286;104.306;2023-11-22T07:30:13;98740.41;;;-12.88;30.06
77077;BME280;66003;52.286;104.306;2023-11-22T07:32:40;98732.38;;;-12.96;30.08
77077;BME280;66003;52.286;104.306;2023-11-22T07:35:07;98727.38;;;-13.10;29.91
77077;BME280;66003;52.286;104.306;2023-11-22T07:37:38;98724.22;;;-13.02;30.07
77077;BME280;66003;52.286;104.306;2023-11-22T07:40:10;98736.41;;;-13.03;29.92
77077;BME280;66003;52.286;104.306;2023-11-22T07:42:40;98730.81;;;-13.09;29.82
77077;BME280;66003;52.286;104.306;2023-11-22T07:45:07;98727.03;;;-13.16;29.87
77077;BME280;66003;52.286;104.306;2023-11-22T07:47:36;98718.41;;;-13.17;30.19
77077;BME280;66003;52.286;104.306;2023-11-22T07:50:02;98723.63;;;-13.06;30.41
77077;BME280;66003;52.286;104.306;2023-11-22T07:52:30;98727.97;;;-13.17;30.57
77077;BME280;66003;52.286;104.306;2023-11-22T07:54:56;98716.75;;;-13.07;30.21
77077;BME280;66003;52.286;104.306;2023-11-22T07:57:23;98723.13;;;-13.11;30.54
77077;BME280;66003;52.286;104.306;2023-11-22T07:59:49;98714.84;;;-13.16;30.35
77077;BME280;66003;52.286;104.306;2023-11-22T08:02:16;98713.91;;;-13.15;30.39
77077;BME280;66003;52.286;104.306;2023-11-22T08:04:45;98714.09;;;-13.29;30.53
77077;BME280;66003;52.286;104.306;2023-11-22T08:07:11;98719.22;;;-13.16;30.38
77077;BME280;66003;52.286;104.306;2023-11-22T08:09:43;98709.88;;;-13.19;30.58
77077;BME280;66003;52.286;104.306;2023-11-22T08:12:09;98705.84;;;-13.12;30.49
77077;BME280;66003;52.286;104.306;2023-11-22T08:14:37;98710.69;;;-13.18;30.52
77077;BME280;66003;52.286;104.306;2023-11-22T08:17:04;98717.56;;;-13.17;30.59
77077;BME280;66003;52.286;104.306;2023-11-22T08:19:31;98706.19;;;-13.28;30.26
77077;BME280;66003;52.286;104.306;2023-11-22T08:21:58;98717.25;;;-13.37;30.62
77077;BME280;66003;52.286;104.306;2023-11-22T08:24:24;98712.22;;;-13.27;30.27
77077;BME280;66003;52.286;104.306;2023-11-22T08:26:50;98716.81;;;-13.31;30.64
77077;BME280;66003;52.286;104.306;2023-11-22T08:29:16;98716.72;;;-13.18;30.47
77077;BME280;66003;52.286;104.306;2023-11-22T08:31:42;98704.44;;;-13.16;30.77
77077;BME280;66003;52.286;104.306;2023-11-22T08:34:08;98694.38;;;-13.21;30.77
77077;BME280;66003;52.286;104.306;2023-11-22T08:36:37;98693.66;;;-13.11;30.79
77077;BME280;66003;52.286;104.306;2023-11-22T08:39:04;98692.94;;;-13.13;30.89
77077;BME280;66003;52.286;104.306;2023-11-22T08:41:32;98689.66;;;-13.15;30.47
77077;BME280;66003;52.286;104.306;2023-11-22T08:43:58;98700.09;;;-13.04;30.67
77077;BME280;66003;52.286;104.306;2023-11-22T08:46:26;98684.56;;;-13.17;30.92
77077;BME280;66003;52.286;104.306;2023-11-22T08:48:53;98681.84;;;-13.15;30.89
77077;BME280;66003;52.286;104.306;2023-11-22T08:51:19;98687.97;;;-13.28;30.56
77077;BME280;66003;52.286;104.306;2023-11-22T08:53:45;98688.06;;;-13.40;31.06
77077;BME280;66003;52.286;104.306;2023-11-22T08:56:11;98699.66;;;-13.33;30.81
77077;BME280;66003;52.286;104.306;2023-11-22T08:58:39;98690.19;;;-13.45;30.82
77077;BME280;66003;52.286;104.306;2023-11-22T09:01:06;98698.03;;;-13.69;31.12
77077;BME280;66003;52.286;104.306;2023-11-22T09:03:33;98692.81;;;-13.69;30.91
77077;BME280;66003;52.286;104.306;2023-11-22T09:06:00;98681.84;;;-13.73;30.80
77077;BME280;66003;52.286;104.306;2023-11-22T09:08:28;98687.81;;;-13.83;30.92
77077;BME280;66003;52.286;104.306;2023-11-22T09:10:56;98681.94;;;-13.74;31.01
77077;BME280;66003;52.286;104.306;2023-11-22T09:13:22;98680.00;;;-13.83;31.29
77077;BME280;66003;52.286;104.306;2023-11-22T09:15:49;98690.19;;;-13.80;31.00
77077;BME280;66003;52.286;104.306;2023-11-22T09:18:15;98687.94;;;-13.85;31.10
77077;BME280;66003;52.286;104.306;2023-11-22T09:20:42;98691.38;;;-13.84;31.06
77077;BME280;66003;52.286;104.306;2023-11-22T09:23:10;98689.53;;;-13.95;31.39
77077;BME280;66003;52.286;104.306;2023-11-22T09:25:37;98696.84;;;-14.00;31.11
77077;BME280;66003;52.286;104.306;2023-11-22T09:28:04;98695.59;;;-14.07;31.25
77077;BME280;66003;52.286;104.306;2023-11-22T09:30:32;98702.19;;;-14.14;31.47
77077;BME280;66003;52.286;104.306;2023-11-22T09:33:08;98704.06;;;-14.16;31.57
77077;BME280;66003;52.286;104.306;2023-11-22T09:35:35;98707.00;;;-14.21;31.98
77077;BME280;66003;52.286;104.306;2023-11-22T09:38:03;98700.75;;;-14.18;32.07
77077;BME280;66003;52.286;104.306;2023-11-22T09:40:30;98702.84;;;-14.23;32.15
77077;BME280;66003;52.286;104.306;2023-11-22T09:42:59;98696.09;;;-14.26;32.14
77077;BME280;66003;52.286;104.306;2023-11-22T09:45:28;98690.84;;;-14.37;32.19
77077;BME280;66003;52.286;104.306;2023-11-22T09:47:59;98688.88;;;-14.34;32.27
77077;BME280;66003;52.286;104.306;2023-11-22T09:50:35;98689.19;;;-14.38;32.65
77077;BME280;66003;52.286;104.306;2023-11-22T09:53:11;98687.75;;;-14.42;32.89
77077;BME280;66003;52.286;104.306;2023-11-22T09:55:41;98684.81;;;-14.38;33.20
77077;BME280;66003;52.286;104.306;2023-11-22T09:58:11;98684.00;;;-14.38;32.83
77077;BME280;66003;52.286;104.306;2023-11-22T10:00:40;98691.47;;;-14.34;32.79
77077;BME280;66003;52.286;104.306;2023-11-22T10:03:07;98677.34;;;-14.42;32.47
77077;BME280;66003;52.286;104.306;2023-11-22T10:05:33;98687.75;;;-14.42;32.26
77077;BME280;66003;52.286;104.306;2023-11-22T10:08:00;98683.19;;;-14.51;32.77
77077;BME280;66003;52.286;104.306;2023-11-22T10:10:29;98685.59;;;-14.48;32.81
77077;BME280;66003;52.286;104.306;2023-11-22T10:12:58;98697.84;;;-14.50;32.71
77077;BME280;66003;52.286;104.306;2023-11-22T10:15:28;98680.72;;;-14.53;32.92
77077;BME280;66003;52.286;104.306;2023-11-22T10:17:55;98680.22;;;-14.58;33.45
77077;BME280;66003;52.286;104.306;2023-11-22T10:20:46;98686.63;;;-14.51;33.32
77077;BME280;66003;52.286;104.306;2023-11-22T10:23:17;98678.84;;;-14.51;33.22
77077;BME280;66003;52.286;104.306;2023-11-22T10:25:44;98689.44;;;-14.54;33.13
77077;BME280;66003;52.286;104.306;2023-11-22T10:28:14;98686.00;;;-14.54;32.87
77077;BME280;66003;52.286;104.306;2023-11-22T10:30:40;98687.19;;;-14.58;33.14
77077;BME280;66003;52.286;104.306;2023-11-22T10:33:07;98690.81;;;-14.61;33.42
77077;BME280;66003;52.286;104.306;2023-11-22T10:35:35;98687.91;;;-14.56;33.06
77077;BME280;66003;52.286;104.306;2023-11-22T10:38:01;98686.56;;;-14.62;33.26
77077;BME280;66003;52.286;104.306;2023-11-22T10:40:32;98688.41;;;-14.64;33.44
77077;BME280;66003;52.286;104.306;2023-11-22T10:42:58;98681.47;;;-14.63;33.55
77077;BME280;66003;52.286;104.306;2023-11-22T10:45:29;98679.69;;;-14.63;33.81
77077;BME280;66003;52.286;104.306;2023-11-22T10:48:00;98680.53;;;-14.62;33.18
77077;BME280;66003;52.286;104.306;2023-11-22T10:50:26;98681.19;;;-14.72;33.46
77077;BME280;66003;52.286;104.306;2023-11-22T10:52:57;98688.66;;;-14.67;33.18
77077;BME280;66003;52.286;104.306;2023-11-22T10:55:32;98684.50;;;-14.70;33.42
77077;BME280;66003;52.286;104.306;2023-11-22T10:58:03;98688.25;;;-14.74;33.55
77077;BME280;66003;52.286;104.306;2023-11-22T11:00:31;98684.25;;;-14.67;33.58
77077;BME280;66003;52.286;104.306;2023-11-22T11:03:07;98687.50;;;-14.63;32.93
77077;BME280;66003;52.286;104.306;2023-11-22T11:05:38;98680.34;;;-14.72;33.37
77077;BME280;66003;52.286;104.306;2023-11-22T11:08:08;98683.16;;;-14.75;32.67
77077;BME280;66003;52.286;104.306;2023-11-22T11:10:42;98678.91;;;-14.76;32.77
77077;BME280;66003;52.286;104.306;2023-11-22T11:13:10;98693.44;;;-14.86;33.33
77077;BME280;66003;52.286;104.306;2023-11-22T11:15:41;98690.34;;;-14.91;33.56
77077;BME280;66003;52.286;104.306;2023-11-22T11:18:15;98696.25;;;-14.89;33.14
77077;BME280;66003;52.286;104.306;2023-11-22T11:20:52;98692.84;;;-15.03;33.24
77077;BME280;66003;52.286;104.306;2023-11-22T11:23:21;98689.00;;;-15.10;33.94
77077;BME280;66003;52.286;104.306;2023-11-22T11:25:54;98682.16;;;-15.11;34.38
77077;BME280;66003;52.286;104.306;2023-11-22T11:28:21;98681.97;;;-15.08;34.19
77077;BME280;66003;52.286;104.306;2023-11-22T11:30:49;98678.31;;;-15.05;33.66
77077;BME280;66003;52.286;104.306;2023-11-22T11:33:27;98678.00;;;-15.01;33.28
77077;BME280;66003;52.286;104.306;2023-11-22T11:35:57;98675.09;;;-15.09;34.04
77077;BME280;66003;52.286;104.306;2023-11-22T11:38:30;98680.94;;;-15.18;34.56
77077;BME280;66003;52.286;104.306;2023-11-22T11:41:08;98691.41;;;-15.19;34.42
77077;BME280;66003;52.286;104.306;2023-11-22T11:43:44;98690.03;;;-15.12;33.86
77077;BME280;66003;52.286;104.306;2023-11-22T11:46:15;98695.56;;;-15.29;33.75
77077;BME280;66003;52.286;104.306;2023-11-22T11:48:48;98686.13;;;-15.43;34.22
77077;BME280;66003;52.286;104.306;2023-11-22T11:51:15;98694.75;;;-15.43;33.61
77077;BME280;66003;52.286;104.306;2023-11-22T11:53:42;98685.72;;;-15.50;33.87
77077;BME280;66003;52.286;104.306;2023-11-22T11:56:09;98703.31;;;-15.55;33.80
77077;BME280;66003;52.286;104.306;2023-11-22T11:58:35;98690.34;;;-15.67;34.93
77077;BME280;66003;52.286;104.306;2023-11-22T12:01:05;98702.38;;;-15.66;34.17
77077;BME280;66003;52.286;104.306;2023-11-22T12:03:35;98685.88;;;-15.78;33.91
77077;BME280;66003;52.286;104.306;2023-11-22T12:06:02;98695.19;;;-15.88;33.99
77077;BME280;66003;52.286;104.306;2023-11-22T12:08:28;98683.41;;;-16.06;34.47
77077;BME280;66003;52.286;104.306;2023-11-22T12:11:03;98686.50;;;-16.14;34.67
77077;BME280;66003;52.286;104.306;2023-11-22T12:13:38;98696.63;;;-16.24;34.58
77077;BME280;66003;52.286;104.306;2023-11-22T12:16:09;98692.84;;;-16.32;34.64
77077;BME280;66003;52.286;104.306;2023-11-22T12:18:45;98692.78;;;-16.45;34.64
77077;BME280;66003;52.286;104.306;2023-11-22T12:21:13;98682.09;;;-16.67;35.15
77077;BME280;66003;52.286;104.306;2023-11-22T12:23:41;98679.50;;;-16.67;35.04
77077;BME280;66003;52.286;104.306;2023-11-22T12:26:14;98682.50;;;-16.73;34.68
77077;BME280;66003;52.286;104.306;2023-11-22T12:28:44;98686.56;;;-17.12;35.17
77077;BME280;66003;52.286;104.306;2023-11-22T12:31:12;98684.97;;;-17.27;35.06
77077;BME280;66003;52.286;104.306;2023-11-22T12:33:42;98688.06;;;-17.36;34.85